Air Resources Laboratory banner image
Air Resources Laboratory web site National Oceanic and Atmospheric Administration (NOAA)

mn metar


KADC 180055Z AUTO 28005KT 10SM CLR M09/M16 A2997 RMK AO2=
KAEL 180055Z AUTO 23005KT 10SM CLR M02/M06 A3002 RMK AO2=
KAIT 180055Z AUTO 25004KT 10SM CLR M08/M16 A2993 RMK AO2=
KANE 180045Z 29012G15KT 10SM SKC M2/M11 A2997=
KAQP 180053Z AUTO 00000KT 10SM CLR M06/M15 A3003 RMK AO2=
KAUM 180055Z AUTO 23005KT 10SM CLR M04/M08 A3002 RMK AO2=
KAXN 180053Z AUTO 30006KT 10SM CLR M08/M15 A3000 RMK AO2 SLP185 T10831150=
KBBB 180056Z AUTO 34003KT 10SM CLR M08/M16 A3004 RMK AO2=
KBDE 180053Z AUTO 26007KT 10SM OVC046 M10/M16 A2986 RMK AO2 SLP138 T11001156=
KBJI 180055Z AUTO 26005KT 10SM SCT032 M12/M17 A2992 RMK AO2 T11181170=
KBRD 180053Z AUTO 27008KT 10SM CLR M07/M16 A2996 RMK AO2 SLP169 T10671161=
KCBG 180055Z AUTO 28011G16KT 10SM CLR M03/M11 A2998 RMK AO2=
KCDD 180052Z AUTO 26003KT 10SM SCT046 M09/M18 A2987 RMK AO2=
KCKC 180055Z AUTO 24006KT 10SM CLR M09/M17 A2976 RMK AO2=
KCKN 180055Z AUTO 26007KT 10SM SCT042 M09/M12 A2998 RMK AO2=
KCOQ 180055Z AUTO 27008KT 10SM CLR M06/M15 A2989 RMK AO2=
KCQM 180055Z AUTO 26009KT 10SM SCT002 OVC032 M09/M14 A2987 RMK AO2=
KDLH 180055Z 28013KT 10SM CLR M06/M14 A2987 RMK AO2 SLP143 T10561139=
KDTL 180055Z AUTO 28006KT 10SM CLR M09/M14 A2998 RMK AO2=
KDXX 180055Z AUTO 31004KT 10SM CLR M03/M12 A3005 RMK AO2=
KDYT 180055Z AUTO 26010KT 10SM CLR M04/M10 A2993 RMK AO2=
KELO 180055Z AUTO 27011G20KT 10SM CLR M09/M16 A2983 RMK AO2=
KETH 180053Z AUTO 30004KT 10SM CLR M06/M14 A3004 RMK AO2=
KFBL 180055Z AUTO 27007KT 10SM CLR M03/M10 A3001 RMK AO2=
KFCM 180053Z 31009KT 10SM CLR M02/M12 A2998 RMK AO2 SLP166 T10171122=
KFFM 180055Z AUTO 34005KT 10SM CLR M08/M14 A3001 RMK AO2=
KFGN 180105Z AUTO 31016G22KT 10SM SCT043 M13/M21 A2990 RMK AO2=
KFOZ 180053Z AUTO 24006KT 10SM CLR M10/M16 A2990 RMK AO2=
KFRM 180056Z AUTO 26008KT 10SM CLR M03/M07 A3005 RMK AO2 SLP196 T10331067
 FZRANO=
KFSE 180056Z AUTO 23007KT 10SM BKN039 M11/M16 A2995 RMK AO2=
KGHW 180055Z AUTO 30007KT 10SM CLR M08/M14 A3000 RMK AO2=
KGNA 180056Z AUTO 26008KT M04/M13 A2984 RMK AO1 SLP119 T10391128 $=
KGPZ 180056Z AUTO 30007KT 10SM CLR M09/M15 A2993 RMK AO2 SLP165 T10891150
 FZRANO=
KGYL 180055Z AUTO 30008KT 10SM CLR M02/M10 A3001 RMK AO2 T10181097=
KHCD 180055Z AUTO 30007KT 10SM CLR M03/M11 A3002 RMK AO2 T10331115=
KHCO 180055Z AUTO 32009KT 10SM SCT041 M11/M17 A2995 RMK AO2=
KHIB 180053Z AUTO 28009KT 10SM CLR M09/M16 A2988 RMK AO2 SLP149 T10891161=
KINL 180055Z AUTO 28010G16KT 10SM CLR M10/M18 A2986 RMK AO2 SLP136 T11001178=
KJKJ 180055Z AUTO 00000KT 10SM CLR M07/M14 A3001 RMK AO2=
KJMR 180055Z AUTO 28007KT 10SM CLR M04/M12 A2998 RMK AO2=
KJYG 180055Z AUTO 24006KT 10SM CLR M05/M09 A3006 RMK AO2=
KLJF 180055Z AUTO 32005KT 10SM CLR M04/M13 A3001 RMK AO2=
KLVN 180055Z AUTO 28006KT 10SM CLR M04/M11 A3000 RMK AO2=
KLXL 180055Z AUTO 29003KT 10SM CLR M07/M20 A2999 RMK AO2=
KMGG 180055Z AUTO 29007KT 10SM CLR M03/M12 A3002 RMK AO2 T10351123=
KMIC 180053Z 30010KT 10SM CLR M02/M12 A2999 RMK AO2 SLP167 T10221117=
KMJQ 180055Z AUTO 28008KT 10SM CLR M03/M08 A3004 RMK AO2=
KMKT 180056Z AUTO 29007KT 10SM CLR M02/M08 A3003 RMK AO2 SLP186 T10171083
 FZRANO=
KMML 180056Z AUTO 28009KT 10SM SCT046 M03/M08 A3004 RMK AO2 SLP192 T10281083
 FZRANO=
KMOX 180055Z AUTO 32004KT 10SM CLR M07/M16 A3001 RMK AO2=
KMSP 180053Z 30011G19KT 10SM CLR M02/M11 A3000 RMK AO2 SLP170 T10171106=
KMVE 180055Z AUTO 36005KT 10SM CLR M04/M14 A3004 RMK AO2=
KMWM 180055Z AUTO 26005KT 10SM CLR M05/M14 A3004 RMK AO2=
KMZH 180055Z AUTO 28011G15KT 10SM CLR M05/M13 A2992 RMK AO2=
KONA 180055Z AUTO 24006KT 10SM CLR M01/M04 A2999 RMK AO2=
KORB 180053Z AUTO 26008G14KT 10SM CLR M10/M17 A2984 RMK AO2=
KOTG 180056Z AUTO 25010KT 10SM CLR M06/M08 A3006 RMK AO2 SLP207 T10611083
 FZRANO=
KOWA 180053Z AUTO 25006KT 10SM CLR M06/M10 A3001 RMK AO2=
KPKD 180053Z AUTO 27009KT 10SM CLR M11/M16 A2994 RMK AO2 SLP174 T11111161=
KPNM 180055Z AUTO 28007KT 10SM CLR M04/M12 A2998 RMK AO2 TSNO=
KPQN 180055Z AUTO 28008KT 10SM CLR M03/M07 A3003 RMK AO2=
KPWC 180056Z AUTO 00000KT 10SM CLR M09/M16 A2998 RMK AO2=
KRGK 180055Z AUTO 30005KT 10SM CLR M02/M09 A2998 RMK AO2=
KROS 180055Z AUTO 29008KT 10SM CLR M05/M12 A2997 RMK AO2 T10461125=
KRRT 180055Z AUTO 30008KT 10SM SCT034 M11/M17 A2990 RMK AO2=
KRST 180054Z 24012KT 10SM CLR M04/M07 A2999 RMK AO2 SLP176 T10441067 $=
KRWF 180053Z AUTO 30007KT 10SM CLR M03/M11 A3003 RMK AO2 SLP184 T10281111=
KSAZ 180055Z AUTO 27006KT 10SM CLR M12/M17 A2998 RMK AO2=
KSGS 180055Z AUTO 29008KT 10SM CLR M01/M11 A2999 RMK AO2 T10061115=
KSTC 180053Z 29009KT 10SM CLR M05/M14 A2999 RMK AO2 SLP183 T10501139=
KSTP 180053Z 30010KT 10SM CLR M01/M11 A3001 RMK AO2 SLP168 T10111106=
KTOB 180055Z AUTO 25007KT 10SM CLR M07/M08 A3000 RMK AO2=
KTVF 180057Z AUTO 28009KT 10SM FEW021 BKN046 M09/M13 A2995 RMK AO2 SNB00E50
 SLP168 P0000 T10941128 FZRANO TSNO=
KTWM 180055Z AUTO 25007KT 10SM CLR M04/M12 A2985 RMK AO2=
KULM 180055Z AUTO 29007KT 10SM CLR M04/M09 A3003 RMK AO2=
KVVV 180107Z AUTO 32005KT 10SM CLR M05/M14 A3003 RMK AO2=
KVWU 180055Z AUTO 24009KT 10SM CLR M12/M16 A2989 RMK AO2=
KXVG 180055Z AUTO 28004KT 10SM CLR M09/M16 A2994 RMK AO2=